Cross, South Carolina
Current Conditions -  °F | °C
As of 3:55 PM on Tuesday 21 Oct 2014 (Local Time) from KMKS Reporting Station
Clear Clear  
Wind Chill: 79°   Ceiling: Unl
Heat Index: 79°   Visibility: 10mi
Dew Point: 55°   Wind: 3mph
Humidity: 44%   Direction: 300°WNW
Pressure: 29.86"   Gusts: NA
Location:  33.32°N, 80.16°W
Report Text: KMKS 211955Z AUTO 30003KT 10SM CLR 26/13 A2986 RMK AO2
Loading
Personal Weather Stations






























Interactive Weather Map
Tropical Storm Tracking
New forecast layout! Learn more

10-Day Weather Forecast

Advertisements
Track Severe Weather on mobile